Freedom of the Seas — C6UZ7 — position and weather

sailwx.info

Track history (hours):
 
Tides and Currents Weather Stations Pressure Air Temp Water Temp Dewpoint Dewpoint Depression Visibility Wind Speed Wind Dir Waves Ship Positions

Freedom of the Seas

Last reported at 2018-May-26 00:21 UTC. Time now 2018-May-26 09:57 UTC.
Position N 17°53' W 063°36'.

Length 339 m; draft 9 m.

Type: Passenger vessel. MMSI: 309906000.

Date/timePositionNaut miles runAvg speedWind from/ knotsBaromVisibWave heightAir tempDewpointWater temp
2018-May-26 00:21N 17°53' W 063°36'721.1
2018-May-26 00:00N 17°49' W 063°29'1121.0
2018-May-25 23:30N 17°45' W 063°19'1221.3
2018-May-25 22:57N 17°38' W 063°09'32 2.6
2018-May-25 10:21N 17°09' W 062°53'  
2018-May-18 05:12N 14°35' W 061°26'313.8
2018-May-18 05:00N 14°33' W 061°24'1515.4
2018-May-18 04:03N 14°23' W 061°13'217.0
2018-May-18 03:57N 14°22' W 061°12'716.6
2018-May-18 03:31N 14°17' W 061°06'816.9
2018-May-18 03:01N 14°14' W 060°58'917.6
2018-May-18 02:30N 14°09' W 060°50'1 0.1
2018-May-17 00:40N 14°09' W 060°49'2 8.6
2018-May-17 00:29N 14°10' W 060°50'4 8.8
2018-May-16 23:59N 14°12' W 060°54'4 8.4
2018-May-16 23:30N 14°11' W 060°58'11 0.9
2018-May-16 10:57N 14°10' W 061°09'613.5
2018-May-16 10:30N 14°15' W 061°13'1813.1
2018-May-16 09:06N 14°30' W 061°24'212.5
2018-May-16 08:56N 14°32' W 061°24'  
Track history (hours):
 
Tides and Currents Weather Stations Pressure Air Temp Water Temp Dewpoint Dewpoint Depression Visibility Wind Speed Wind Dir Waves Ship Positions

Freedom of the Seas

Last reported at 2018-May-26 00:21 UTC. Time now 2018-May-26 09:57 UTC.
Position N 17°53' W 063°36'.

Length 339 m; draft 9 m.

Type: Passenger vessel. MMSI: 309906000.

Date/timePositionNaut miles runAvg speedWind from/ knotsBaromVisibWave heightAir tempDewpointWater temp
2018-May-26 00:21N 17°53' W 063°36'721.1
2018-May-26 00:00N 17°49' W 063°29'1121.0
2018-May-25 23:30N 17°45' W 063°19'1221.3
2018-May-25 22:57N 17°38' W 063°09'32 2.6
2018-May-25 10:21N 17°09' W 062°53'  
2018-May-18 05:12N 14°35' W 061°26'313.8
2018-May-18 05:00N 14°33' W 061°24'1515.4
2018-May-18 04:03N 14°23' W 061°13'217.0
2018-May-18 03:57N 14°22' W 061°12'716.6
2018-May-18 03:31N 14°17' W 061°06'816.9
2018-May-18 03:01N 14°14' W 060°58'917.6
2018-May-18 02:30N 14°09' W 060°50'1 0.1
2018-May-17 00:40N 14°09' W 060°49'2 8.6
2018-May-17 00:29N 14°10' W 060°50'4 8.8
2018-May-16 23:59N 14°12' W 060°54'4 8.4
2018-May-16 23:30N 14°11' W 060°58'11 0.9
2018-May-16 10:57N 14°10' W 061°09'613.5
2018-May-16 10:30N 14°15' W 061°13'1813.1
2018-May-16 09:06N 14°30' W 061°24'212.5
2018-May-16 08:56N 14°32' W 061°24'  

Dump ship's entire track history